sensor_id;sensor_type;location;lat;lon;timestamp;P1;durP1;ratioP1;P2;durP2;ratioP2
35506;SDS011;36461;52.018;21.036;2023-10-13T00:02:04;6.80;;;3.60;;
35506;SDS011;36461;52.018;21.036;2023-10-13T00:04:33;6.10;;;3.50;;
35506;SDS011;36461;52.018;21.036;2023-10-13T00:07:03;5.20;;;3.60;;
35506;SDS011;36461;52.018;21.036;2023-10-13T00:09:37;5.20;;;3.70;;
35506;SDS011;36461;52.018;21.036;2023-10-13T00:12:05;6.10;;;3.60;;
35506;SDS011;36461;52.018;21.036;2023-10-13T00:14:41;5.70;;;3.70;;
35506;SDS011;36461;52.018;21.036;2023-10-13T00:17:13;5.80;;;3.20;;
35506;SDS011;36461;52.018;21.036;2023-10-13T00:19:48;6.30;;;4.10;;
35506;SDS011;36461;52.018;21.036;2023-10-13T00:22:21;5.30;;;3.50;;
35506;SDS011;36461;52.018;21.036;2023-10-13T00:24:51;6.30;;;3.40;;
35506;SDS011;36461;52.018;21.036;2023-10-13T00:27:26;5.00;;;3.30;;
35506;SDS011;36461;52.018;21.036;2023-10-13T00:29:59;6.40;;;3.50;;
35506;SDS011;36461;52.018;21.036;2023-10-13T00:32:48;5.30;;;3.80;;
35506;SDS011;36461;52.018;21.036;2023-10-13T00:35:27;6.50;;;3.70;;
35506;SDS011;36461;52.018;21.036;2023-10-13T00:37:57;6.70;;;3.80;;
35506;SDS011;36461;52.018;21.036;2023-10-13T00:40:46;5.50;;;3.80;;
35506;SDS011;36461;52.018;21.036;2023-10-13T00:43:20;5.10;;;3.90;;
35506;SDS011;36461;52.018;21.036;2023-10-13T00:45:52;6.30;;;3.70;;
35506;SDS011;36461;52.018;21.036;2023-10-13T00:48:26;6.40;;;3.80;;
35506;SDS011;36461;52.018;21.036;2023-10-13T00:51:00;7.50;;;4.20;;
35506;SDS011;36461;52.018;21.036;2023-10-13T00:53:41;4.90;;;3.70;;
35506;SDS011;36461;52.018;21.036;2023-10-13T00:56:12;6.40;;;4.00;;
35506;SDS011;36461;52.018;21.036;2023-10-13T00:58:47;7.40;;;4.80;;
35506;SDS011;36461;52.018;21.036;2023-10-13T01:01:20;6.30;;;4.30;;
35506;SDS011;36461;52.018;21.036;2023-10-13T01:03:58;6.70;;;4.10;;
35506;SDS011;36461;52.018;21.036;2023-10-13T01:06:31;5.60;;;4.00;;
35506;SDS011;36461;52.018;21.036;2023-10-13T01:09:03;6.20;;;4.50;;
35506;SDS011;36461;52.018;21.036;2023-10-13T01:11:40;7.40;;;3.80;;
35506;SDS011;36461;52.018;21.036;2023-10-13T01:14:11;6.80;;;4.30;;
35506;SDS011;36461;52.018;21.036;2023-10-13T01:16:40;4.50;;;3.40;;
35506;SDS011;36461;52.018;21.036;2023-10-13T01:19:15;5.50;;;3.80;;
35506;SDS011;36461;52.018;21.036;2023-10-13T01:21:50;6.70;;;3.30;;
35506;SDS011;36461;52.018;21.036;2023-10-13T01:24:25;9.00;;;5.00;;
35506;SDS011;36461;52.018;21.036;2023-10-13T01:26:58;9.90;;;5.60;;
35506;SDS011;36461;52.018;21.036;2023-10-13T01:29:35;8.80;;;4.50;;
35506;SDS011;36461;52.018;21.036;2023-10-13T01:32:04;5.90;;;4.10;;
35506;SDS011;36461;52.018;21.036;2023-10-13T01:34:32;5.70;;;3.80;;
35506;SDS011;36461;52.018;21.036;2023-10-13T01:37:01;4.80;;;3.40;;
35506;SDS011;36461;52.018;21.036;2023-10-13T01:39:34;9.30;;;3.90;;
35506;SDS011;36461;52.018;21.036;2023-10-13T01:42:02;6.00;;;3.70;;
35506;SDS011;36461;52.018;21.036;2023-10-13T01:44:30;5.90;;;3.90;;
35506;SDS011;36461;52.018;21.036;2023-10-13T01:47:01;9.10;;;4.20;;
35506;SDS011;36461;52.018;21.036;2023-10-13T01:49:34;7.00;;;3.80;;
35506;SDS011;36461;52.018;21.036;2023-10-13T01:52:15;5.50;;;4.00;;
35506;SDS011;36461;52.018;21.036;2023-10-13T01:54:45;7.20;;;4.30;;
35506;SDS011;36461;52.018;21.036;2023-10-13T01:57:17;7.30;;;4.10;;
35506;SDS011;36461;52.018;21.036;2023-10-13T01:59:47;5.10;;;3.60;;
35506;SDS011;36461;52.018;21.036;2023-10-13T02:02:18;6.80;;;3.80;;
35506;SDS011;36461;52.018;21.036;2023-10-13T02:04:57;6.10;;;3.80;;
35506;SDS011;36461;52.018;21.036;2023-10-13T02:07:30;6.90;;;4.00;;
35506;SDS011;36461;52.018;21.036;2023-10-13T02:09:59;7.20;;;3.70;;
35506;SDS011;36461;52.018;21.036;2023-10-13T02:12:31;7.50;;;3.60;;
35506;SDS011;36461;52.018;21.036;2023-10-13T02:15:12;10.30;;;4.00;;
35506;SDS011;36461;52.018;21.036;2023-10-13T02:17:54;5.90;;;3.30;;
35506;SDS011;36461;52.018;21.036;2023-10-13T02:20:23;4.90;;;3.20;;
35506;SDS011;36461;52.018;21.036;2023-10-13T02:22:59;8.20;;;3.50;;
35506;SDS011;36461;52.018;21.036;2023-10-13T02:25:28;10.70;;;4.10;;
35506;SDS011;36461;52.018;21.036;2023-10-13T02:28:14;6.10;;;3.60;;
35506;SDS011;36461;52.018;21.036;2023-10-13T02:30:43;7.30;;;3.80;;
35506;SDS011;36461;52.018;21.036;2023-10-13T02:33:13;4.60;;;3.20;;
35506;SDS011;36461;52.018;21.036;2023-10-13T02:35:42;7.10;;;3.30;;
35506;SDS011;36461;52.018;21.036;2023-10-13T02:38:31;9.10;;;4.40;;
35506;SDS011;36461;52.018;21.036;2023-10-13T02:41:19;7.50;;;4.20;;
35506;SDS011;36461;52.018;21.036;2023-10-13T02:43:54;10.60;;;4.40;;
35506;SDS011;36461;52.018;21.036;2023-10-13T02:46:23;11.30;;;4.60;;
35506;SDS011;36461;52.018;21.036;2023-10-13T02:48:57;7.30;;;3.90;;
35506;SDS011;36461;52.018;21.036;2023-10-13T02:51:30;7.50;;;3.90;;
35506;SDS011;36461;52.018;21.036;2023-10-13T02:54:04;5.60;;;4.00;;
35506;SDS011;36461;52.018;21.036;2023-10-13T02:56:46;7.50;;;3.70;;
35506;SDS011;36461;52.018;21.036;2023-10-13T02:59:29;7.70;;;3.70;;
35506;SDS011;36461;52.018;21.036;2023-10-13T03:02:23;7.10;;;4.10;;
35506;SDS011;36461;52.018;21.036;2023-10-13T03:04:54;6.90;;;4.00;;
35506;SDS011;36461;52.018;21.036;2023-10-13T03:07:28;5.50;;;3.70;;
35506;SDS011;36461;52.018;21.036;2023-10-13T03:09:58;8.30;;;4.10;;
35506;SDS011;36461;52.018;21.036;2023-10-13T03:12:39;9.20;;;4.90;;
35506;SDS011;36461;52.018;21.036;2023-10-13T03:15:08;7.90;;;4.70;;
35506;SDS011;36461;52.018;21.036;2023-10-13T03:17:42;7.60;;;4.90;;
35506;SDS011;36461;52.018;21.036;2023-10-13T03:20:14;6.00;;;4.20;;
35506;SDS011;36461;52.018;21.036;2023-10-13T03:22:48;8.70;;;4.10;;
35506;SDS011;36461;52.018;21.036;2023-10-13T03:25:20;8.10;;;4.10;;
35506;SDS011;36461;52.018;21.036;2023-10-13T03:27:58;7.50;;;4.50;;
35506;SDS011;36461;52.018;21.036;2023-10-13T03:30:29;9.50;;;4.30;;
35506;SDS011;36461;52.018;21.036;2023-10-13T03:33:04;9.60;;;4.90;;
35506;SDS011;36461;52.018;21.036;2023-10-13T03:35:57;13.60;;;5.00;;
35506;SDS011;36461;52.018;21.036;2023-10-13T03:38:34;7.50;;;4.10;;
35506;SDS011;36461;52.018;21.036;2023-10-13T03:41:04;8.20;;;4.90;;
35506;SDS011;36461;52.018;21.036;2023-10-13T03:43:36;6.30;;;4.30;;
35506;SDS011;36461;52.018;21.036;2023-10-13T03:46:14;8.00;;;4.60;;
35506;SDS011;36461;52.018;21.036;2023-10-13T03:48:49;8.70;;;4.30;;
35506;SDS011;36461;52.018;21.036;2023-10-13T03:51:22;6.80;;;4.70;;
35506;SDS011;36461;52.018;21.036;2023-10-13T03:53:59;6.40;;;4.50;;
35506;SDS011;36461;52.018;21.036;2023-10-13T03:56:28;8.60;;;5.50;;
35506;SDS011;36461;52.018;21.036;2023-10-13T03:59:08;8.50;;;4.90;;
35506;SDS011;36461;52.018;21.036;2023-10-13T04:01:42;8.50;;;4.70;;
35506;SDS011;36461;52.018;21.036;2023-10-13T04:04:12;7.70;;;4.80;;
35506;SDS011;36461;52.018;21.036;2023-10-13T04:06:43;6.60;;;4.40;;
35506;SDS011;36461;52.018;21.036;2023-10-13T04:09:20;7.90;;;4.70;;
35506;SDS011;36461;52.018;21.036;2023-10-13T04:11:59;6.40;;;4.50;;
35506;SDS011;36461;52.018;21.036;2023-10-13T04:14:49;8.50;;;4.90;;
35506;SDS011;36461;52.018;21.036;2023-10-13T04:17:23;9.30;;;5.40;;
35506;SDS011;36461;52.018;21.036;2023-10-13T04:19:55;8.00;;;5.20;;
35506;SDS011;36461;52.018;21.036;2023-10-13T04:22:34;6.80;;;4.80;;
35506;SDS011;36461;52.018;21.036;2023-10-13T04:25:16;6.30;;;4.30;;
35506;SDS011;36461;52.018;21.036;2023-10-13T04:28:12;9.10;;;5.00;;
35506;SDS011;36461;52.018;21.036;2023-10-13T04:30:44;7.00;;;4.60;;
35506;SDS011;36461;52.018;21.036;2023-10-13T04:33:34;8.30;;;4.70;;
35506;SDS011;36461;52.018;21.036;2023-10-13T04:38:53;7.00;;;4.80;;
35506;SDS011;36461;52.018;21.036;2023-10-13T04:41:39;6.30;;;4.40;;
35506;SDS011;36461;52.018;21.036;2023-10-13T04:44:26;8.00;;;4.30;;
35506;SDS011;36461;52.018;21.036;2023-10-13T04:47:15;7.40;;;4.30;;
35506;SDS011;36461;52.018;21.036;2023-10-13T04:49:50;7.20;;;4.50;;
35506;SDS011;36461;52.018;21.036;2023-10-13T04:52:20;6.50;;;4.60;;
35506;SDS011;36461;52.018;21.036;2023-10-13T04:55:19;7.30;;;4.20;;
35506;SDS011;36461;52.018;21.036;2023-10-13T04:58:19;8.80;;;4.40;;
35506;SDS011;36461;52.018;21.036;2023-10-13T05:01:00;9.50;;;4.40;;
35506;SDS011;36461;52.018;21.036;2023-10-13T05:03:57;8.40;;;4.10;;
35506;SDS011;36461;52.018;21.036;2023-10-13T05:06:38;6.20;;;4.10;;
35506;SDS011;36461;52.018;21.036;2023-10-13T05:09:12;6.70;;;4.30;;
35506;SDS011;36461;52.018;21.036;2023-10-13T05:11:59;6.40;;;4.20;;
35506;SDS011;36461;52.018;21.036;2023-10-13T05:14:46;6.60;;;3.90;;
35506;SDS011;36461;52.018;21.036;2023-10-13T05:17:33;5.80;;;3.90;;
35506;SDS011;36461;52.018;21.036;2023-10-13T05:20:40;8.50;;;4.30;;
35506;SDS011;36461;52.018;21.036;2023-10-13T05:23:27;5.90;;;4.20;;
35506;SDS011;36461;52.018;21.036;2023-10-13T05:26:14;7.00;;;4.80;;
35506;SDS011;36461;52.018;21.036;2023-10-13T05:29:01;7.00;;;4.90;;
35506;SDS011;36461;52.018;21.036;2023-10-13T05:31:56;11.10;;;7.60;;
35506;SDS011;36461;52.018;21.036;2023-10-13T05:34:43;14.30;;;9.10;;
35506;SDS011;36461;52.018;21.036;2023-10-13T05:37:30;16.20;;;9.60;;
35506;SDS011;36461;52.018;21.036;2023-10-13T05:40:17;22.00;;;14.30;;
35506;SDS011;36461;52.018;21.036;2023-10-13T05:43:04;24.30;;;13.80;;
35506;SDS011;36461;52.018;21.036;2023-10-13T05:45:50;15.80;;;10.60;;
35506;SDS011;36461;52.018;21.036;2023-10-13T05:48:42;12.10;;;7.80;;
35506;SDS011;36461;52.018;21.036;2023-10-13T05:51:29;12.60;;;6.20;;
35506;SDS011;36461;52.018;21.036;2023-10-13T05:54:11;9.40;;;6.70;;
35506;SDS011;36461;52.018;21.036;2023-10-13T05:56:46;14.40;;;8.60;;
35506;SDS011;36461;52.018;21.036;2023-10-13T05:59:34;16.00;;;11.60;;
35506;SDS011;36461;52.018;21.036;2023-10-13T06:02:23;16.30;;;10.90;;
35506;SDS011;36461;52.018;21.036;2023-10-13T06:05:11;23.40;;;15.10;;
35506;SDS011;36461;52.018;21.036;2023-10-13T06:07:59;16.10;;;12.40;;
35506;SDS011;36461;52.018;21.036;2023-10-13T06:10:48;12.10;;;9.10;;
35506;SDS011;36461;52.018;21.036;2023-10-13T06:13:36;15.00;;;11.00;;
35506;SDS011;36461;52.018;21.036;2023-10-13T06:16:22;16.70;;;11.50;;
35506;SDS011;36461;52.018;21.036;2023-10-13T06:19:09;16.20;;;11.90;;
35506;SDS011;36461;52.018;21.036;2023-10-13T06:21:56;15.70;;;11.00;;
35506;SDS011;36461;52.018;21.036;2023-10-13T06:24:43;13.50;;;10.50;;
35506;SDS011;36461;52.018;21.036;2023-10-13T06:27:31;16.20;;;10.30;;
35506;SDS011;36461;52.018;21.036;2023-10-13T06:30:18;14.80;;;10.40;;
35506;SDS011;36461;52.018;21.036;2023-10-13T06:32:48;13.20;;;9.30;;
35506;SDS011;36461;52.018;21.036;2023-10-13T06:35:18;13.40;;;9.10;;
35506;SDS011;36461;52.018;21.036;2023-10-13T06:37:47;14.40;;;9.00;;
35506;SDS011;36461;52.018;21.036;2023-10-13T06:40:15;12.00;;;8.10;;
35506;SDS011;36461;52.018;21.036;2023-10-13T06:42:49;12.40;;;8.50;;
35506;SDS011;36461;52.018;21.036;2023-10-13T06:45:17;12.00;;;8.40;;
35506;SDS011;36461;52.018;21.036;2023-10-13T06:47:46;11.00;;;7.30;;
35506;SDS011;36461;52.018;21.036;2023-10-13T06:50:15;9.70;;;5.90;;
35506;SDS011;36461;52.018;21.036;2023-10-13T06:52:44;8.00;;;5.30;;
35506;SDS011;36461;52.018;21.036;2023-10-13T06:55:16;11.10;;;7.20;;
35506;SDS011;36461;52.018;21.036;2023-10-13T06:58:08;12.50;;;6.20;;
35506;SDS011;36461;52.018;21.036;2023-10-13T07:00:41;11.80;;;6.60;;
35506;SDS011;36461;52.018;21.036;2023-10-13T07:03:22;8.90;;;5.80;;
35506;SDS011;36461;52.018;21.036;2023-10-13T07:05:51;8.70;;;5.60;;
35506;SDS011;36461;52.018;21.036;2023-10-13T07:08:20;7.70;;;5.30;;
35506;SDS011;36461;52.018;21.036;2023-10-13T07:13:30;7.90;;;4.30;;
35506;SDS011;36461;52.018;21.036;2023-10-13T07:16:07;7.30;;;4.60;;
35506;SDS011;36461;52.018;21.036;2023-10-13T07:18:57;9.10;;;4.70;;
35506;SDS011;36461;52.018;21.036;2023-10-13T07:21:33;7.50;;;4.10;;
35506;SDS011;36461;52.018;21.036;2023-10-13T07:24:01;8.90;;;4.60;;
35506;SDS011;36461;52.018;21.036;2023-10-13T07:26:39;8.90;;;5.40;;
35506;SDS011;36461;52.018;21.036;2023-10-13T07:29:14;10.20;;;4.90;;
35506;SDS011;36461;52.018;21.036;2023-10-13T07:31:43;8.50;;;5.00;;
35506;SDS011;36461;52.018;21.036;2023-10-13T07:34:13;8.80;;;5.30;;
35506;SDS011;36461;52.018;21.036;2023-10-13T07:36:53;8.70;;;5.00;;
35506;SDS011;36461;52.018;21.036;2023-10-13T07:39:27;7.90;;;5.30;;
35506;SDS011;36461;52.018;21.036;2023-10-13T07:41:56;11.10;;;7.10;;
35506;SDS011;36461;52.018;21.036;2023-10-13T07:44:34;8.50;;;6.00;;
35506;SDS011;36461;52.018;21.036;2023-10-13T07:47:08;10.90;;;5.40;;
35506;SDS011;36461;52.018;21.036;2023-10-13T07:49:38;8.90;;;5.00;;
35506;SDS011;36461;52.018;21.036;2023-10-13T07:52:08;7.80;;;4.30;;
35506;SDS011;36461;52.018;21.036;2023-10-13T07:54:49;8.00;;;4.40;;
35506;SDS011;36461;52.018;21.036;2023-10-13T07:57:27;7.20;;;4.00;;
35506;SDS011;36461;52.018;21.036;2023-10-13T07:59:58;7.20;;;4.30;;
35506;SDS011;36461;52.018;21.036;2023-10-13T08:02:58;8.40;;;4.40;;
35506;SDS011;36461;52.018;21.036;2023-10-13T08:05:59;7.90;;;4.20;;
35506;SDS011;36461;52.018;21.036;2023-10-13T08:08:35;8.20;;;4.80;;
35506;SDS011;36461;52.018;21.036;2023-10-13T08:11:10;7.80;;;5.00;;
35506;SDS011;36461;52.018;21.036;2023-10-13T08:13:39;8.30;;;4.80;;
35506;SDS011;36461;52.018;21.036;2023-10-13T08:16:29;10.60;;;6.00;;
35506;SDS011;36461;52.018;21.036;2023-10-13T08:19:16;10.40;;;6.50;;
35506;SDS011;36461;52.018;21.036;2023-10-13T08:21:47;11.10;;;6.70;;
35506;SDS011;36461;52.018;21.036;2023-10-13T08:24:29;10.10;;;5.50;;
35506;SDS011;36461;52.018;21.036;2023-10-13T08:27:19;8.80;;;5.30;;
35506;SDS011;36461;52.018;21.036;2023-10-13T08:30:17;6.00;;;4.50;;
35506;SDS011;36461;52.018;21.036;2023-10-13T08:32:56;7.80;;;5.10;;
35506;SDS011;36461;52.018;21.036;2023-10-13T08:35:28;10.90;;;4.10;;
35506;SDS011;36461;52.018;21.036;2023-10-13T08:38:03;9.10;;;3.80;;
35506;SDS011;36461;52.018;21.036;2023-10-13T08:40:57;6.40;;;3.60;;
35506;SDS011;36461;52.018;21.036;2023-10-13T08:43:46;8.50;;;3.80;;
35506;SDS011;36461;52.018;21.036;2023-10-13T08:46:31;7.20;;;3.20;;
35506;SDS011;36461;52.018;21.036;2023-10-13T08:49:19;9.80;;;3.70;;
35506;SDS011;36461;52.018;21.036;2023-10-13T08:51:51;7.00;;;4.00;;
35506;SDS011;36461;52.018;21.036;2023-10-13T08:54:35;8.80;;;3.80;;
35506;SDS011;36461;52.018;21.036;2023-10-13T08:57:29;8.30;;;3.40;;
35506;SDS011;36461;52.018;21.036;2023-10-13T09:00:01;6.60;;;3.40;;
35506;SDS011;36461;52.018;21.036;2023-10-13T09:02:49;6.70;;;3.60;;
35506;SDS011;36461;52.018;21.036;2023-10-13T09:05:27;8.40;;;3.30;;
35506;SDS011;36461;52.018;21.036;2023-10-13T09:08:10;7.50;;;3.10;;
35506;SDS011;36461;52.018;21.036;2023-10-13T09:10:44;10.20;;;3.80;;
35506;SDS011;36461;52.018;21.036;2023-10-13T09:13:17;7.40;;;3.60;;
35506;SDS011;36461;52.018;21.036;2023-10-13T09:15:49;7.50;;;3.00;;
35506;SDS011;36461;52.018;21.036;2023-10-13T09:18:29;8.50;;;3.90;;
35506;SDS011;36461;52.018;21.036;2023-10-13T09:21:15;8.70;;;3.80;;
35506;SDS011;36461;52.018;21.036;2023-10-13T09:24:02;7.30;;;3.60;;
35506;SDS011;36461;52.018;21.036;2023-10-13T09:26:46;7.30;;;3.50;;
35506;SDS011;36461;52.018;21.036;2023-10-13T09:29:17;7.60;;;3.50;;
35506;SDS011;36461;52.018;21.036;2023-10-13T09:31:47;8.40;;;3.80;;
35506;SDS011;36461;52.018;21.036;2023-10-13T09:34:27;8.60;;;3.70;;
35506;SDS011;36461;52.018;21.036;2023-10-13T09:37:03;8.90;;;4.30;;
35506;SDS011;36461;52.018;21.036;2023-10-13T09:39:32;8.40;;;3.80;;
35506;SDS011;36461;52.018;21.036;2023-10-13T09:42:13;10.30;;;4.40;;
35506;SDS011;36461;52.018;21.036;2023-10-13T09:44:45;8.30;;;4.00;;
35506;SDS011;36461;52.018;21.036;2023-10-13T09:47:27;8.10;;;4.20;;
35506;SDS011;36461;52.018;21.036;2023-10-13T09:50:07;7.90;;;4.30;;
35506;SDS011;36461;52.018;21.036;2023-10-13T09:52:43;10.40;;;4.30;;
35506;SDS011;36461;52.018;21.036;2023-10-13T09:56:15;8.00;;;4.20;;
35506;SDS011;36461;52.018;21.036;2023-10-13T09:58:49;10.00;;;4.30;;
35506;SDS011;36461;52.018;21.036;2023-10-13T10:01:25;7.70;;;4.50;;
35506;SDS011;36461;52.018;21.036;2023-10-13T10:04:14;9.10;;;4.40;;
35506;SDS011;36461;52.018;21.036;2023-10-13T10:06:56;9.40;;;4.50;;
35506;SDS011;36461;52.018;21.036;2023-10-13T10:09:29;9.00;;;5.00;;
35506;SDS011;36461;52.018;21.036;2023-10-13T10:17:42;7.90;;;5.20;;
35506;SDS011;36461;52.018;21.036;2023-10-13T10:20:12;9.00;;;5.40;;
35506;SDS011;36461;52.018;21.036;2023-10-13T10:22:43;9.30;;;4.70;;
35506;SDS011;36461;52.018;21.036;2023-10-13T10:25:16;9.40;;;4.70;;
35506;SDS011;36461;52.018;21.036;2023-10-13T10:27:55;8.50;;;5.00;;
35506;SDS011;36461;52.018;21.036;2023-10-13T10:30:28;9.40;;;5.20;;
35506;SDS011;36461;52.018;21.036;2023-10-13T10:32:57;8.60;;;5.10;;
35506;SDS011;36461;52.018;21.036;2023-10-13T10:35:34;12.70;;;5.40;;
35506;SDS011;36461;52.018;21.036;2023-10-13T10:40:49;12.90;;;6.30;;
35506;SDS011;36461;52.018;21.036;2023-10-13T10:43:20;10.50;;;5.70;;
35506;SDS011;36461;52.018;21.036;2023-10-13T10:46:01;11.30;;;5.70;;
35506;SDS011;36461;52.018;21.036;2023-10-13T10:48:31;8.70;;;5.20;;
35506;SDS011;36461;52.018;21.036;2023-10-13T10:51:02;8.80;;;5.20;;
35506;SDS011;36461;52.018;21.036;2023-10-13T10:53:50;10.50;;;5.50;;
35506;SDS011;36461;52.018;21.036;2023-10-13T10:56:22;9.40;;;5.30;;
35506;SDS011;36461;52.018;21.036;2023-10-13T10:59:05;9.00;;;5.50;;
35506;SDS011;36461;52.018;21.036;2023-10-13T11:01:42;8.10;;;5.50;;
35506;SDS011;36461;52.018;21.036;2023-10-13T11:04:15;9.50;;;5.40;;
35506;SDS011;36461;52.018;21.036;2023-10-13T11:06:51;10.40;;;5.70;;
35506;SDS011;36461;52.018;21.036;2023-10-13T11:11:53;10.30;;;5.60;;
35506;SDS011;36461;52.018;21.036;2023-10-13T11:14:28;9.40;;;5.40;;
35506;SDS011;36461;52.018;21.036;2023-10-13T11:16:58;10.50;;;5.90;;
35506;SDS011;36461;52.018;21.036;2023-10-13T11:19:41;9.30;;;5.40;;
35506;SDS011;36461;52.018;21.036;2023-10-13T11:22:14;10.80;;;5.70;;
35506;SDS011;36461;52.018;21.036;2023-10-13T11:25:23;9.30;;;5.50;;
35506;SDS011;36461;52.018;21.036;2023-10-13T11:28:16;11.40;;;5.80;;
35506;SDS011;36461;52.018;21.036;2023-10-13T11:30:48;12.90;;;6.00;;
35506;SDS011;36461;52.018;21.036;2023-10-13T11:33:18;11.50;;;6.40;;
35506;SDS011;36461;52.018;21.036;2023-10-13T11:35:56;10.00;;;5.50;;
35506;SDS011;36461;52.018;21.036;2023-10-13T11:38:26;11.60;;;6.90;;
35506;SDS011;36461;52.018;21.036;2023-10-13T11:41:02;10.30;;;6.30;;
35506;SDS011;36461;52.018;21.036;2023-10-13T11:43:36;12.00;;;6.20;;
35506;SDS011;36461;52.018;21.036;2023-10-13T11:46:11;11.90;;;6.10;;
35506;SDS011;36461;52.018;21.036;2023-10-13T11:48:45;11.00;;;5.70;;
35506;SDS011;36461;52.018;21.036;2023-10-13T11:51:22;11.70;;;5.60;;
35506;SDS011;36461;52.018;21.036;2023-10-13T11:54:00;12.40;;;6.10;;
35506;SDS011;36461;52.018;21.036;2023-10-13T11:56:28;10.70;;;5.90;;
35506;SDS011;36461;52.018;21.036;2023-10-13T11:58:56;11.10;;;5.30;;
35506;SDS011;36461;52.018;21.036;2023-10-13T12:01:29;8.40;;;5.00;;
35506;SDS011;36461;52.018;21.036;2023-10-13T12:04:16;9.00;;;5.20;;
35506;SDS011;36461;52.018;21.036;2023-10-13T12:07:09;12.00;;;5.90;;
35506;SDS011;36461;52.018;21.036;2023-10-13T12:09:56;10.80;;;5.90;;
35506;SDS011;36461;52.018;21.036;2023-10-13T12:12:25;11.50;;;6.00;;
35506;SDS011;36461;52.018;21.036;2023-10-13T12:14:54;8.20;;;5.30;;
35506;SDS011;36461;52.018;21.036;2023-10-13T12:17:27;10.30;;;5.60;;
35506;SDS011;36461;52.018;21.036;2023-10-13T12:20:03;10.80;;;5.60;;
35506;SDS011;36461;52.018;21.036;2023-10-13T12:22:33;10.00;;;5.20;;
35506;SDS011;36461;52.018;21.036;2023-10-13T12:25:07;9.90;;;5.80;;
35506;SDS011;36461;52.018;21.036;2023-10-13T12:28:02;10.20;;;5.30;;
35506;SDS011;36461;52.018;21.036;2023-10-13T12:30:50;11.60;;;5.80;;
35506;SDS011;36461;52.018;21.036;2023-10-13T12:33:22;9.80;;;5.80;;
35506;SDS011;36461;52.018;21.036;2023-10-13T12:38:37;9.50;;;5.50;;
35506;SDS011;36461;52.018;21.036;2023-10-13T12:41:15;12.00;;;5.70;;
35506;SDS011;36461;52.018;21.036;2023-10-13T12:44:04;8.60;;;5.00;;
35506;SDS011;36461;52.018;21.036;2023-10-13T12:46:52;9.40;;;5.50;;
35506;SDS011;36461;52.018;21.036;2023-10-13T12:49:40;10.60;;;6.00;;
35506;SDS011;36461;52.018;21.036;2023-10-13T12:52:09;8.60;;;5.70;;
35506;SDS011;36461;52.018;21.036;2023-10-13T12:54:56;11.00;;;5.30;;
35506;SDS011;36461;52.018;21.036;2023-10-13T12:57:25;9.90;;;6.00;;
35506;SDS011;36461;52.018;21.036;2023-10-13T12:59:54;8.80;;;6.00;;
35506;SDS011;36461;52.018;21.036;2023-10-13T13:02:23;8.70;;;5.20;;
35506;SDS011;36461;52.018;21.036;2023-10-13T13:04:54;10.10;;;5.80;;
35506;SDS011;36461;52.018;21.036;2023-10-13T13:07:40;9.60;;;5.90;;
35506;SDS011;36461;52.018;21.036;2023-10-13T13:10:15;10.60;;;5.70;;
35506;SDS011;36461;52.018;21.036;2023-10-13T13:12:43;10.70;;;6.20;;
35506;SDS011;36461;52.018;21.036;2023-10-13T13:15:12;10.40;;;5.40;;
35506;SDS011;36461;52.018;21.036;2023-10-13T13:17:40;14.30;;;6.10;;
35506;SDS011;36461;52.018;21.036;2023-10-13T13:20:10;8.30;;;5.70;;
35506;SDS011;36461;52.018;21.036;2023-10-13T13:22:39;8.80;;;5.00;;
35506;SDS011;36461;52.018;21.036;2023-10-13T13:25:08;11.70;;;5.90;;
35506;SDS011;36461;52.018;21.036;2023-10-13T13:27:38;10.80;;;5.90;;
35506;SDS011;36461;52.018;21.036;2023-10-13T13:30:10;12.50;;;7.20;;
35506;SDS011;36461;52.018;21.036;2023-10-13T13:32:41;9.50;;;6.00;;
35506;SDS011;36461;52.018;21.036;2023-10-13T13:35:09;9.00;;;6.20;;
35506;SDS011;36461;52.018;21.036;2023-10-13T13:37:41;10.00;;;5.80;;
35506;SDS011;36461;52.018;21.036;2023-10-13T13:40:12;9.50;;;5.70;;
35506;SDS011;36461;52.018;21.036;2023-10-13T13:42:49;8.70;;;6.90;;
35506;SDS011;36461;52.018;21.036;2023-10-13T13:45:18;11.10;;;6.40;;
35506;SDS011;36461;52.018;21.036;2023-10-13T13:47:50;9.90;;;6.80;;
35506;SDS011;36461;52.018;21.036;2023-10-13T13:50:22;11.20;;;6.80;;
35506;SDS011;36461;52.018;21.036;2023-10-13T13:52:54;11.00;;;6.30;;
35506;SDS011;36461;52.018;21.036;2023-10-13T13:55:24;11.90;;;5.90;;
35506;SDS011;36461;52.018;21.036;2023-10-13T13:57:57;9.50;;;6.00;;
35506;SDS011;36461;52.018;21.036;2023-10-13T14:00:25;9.50;;;5.90;;
35506;SDS011;36461;52.018;21.036;2023-10-13T14:03:06;8.20;;;5.80;;
35506;SDS011;36461;52.018;21.036;2023-10-13T14:05:41;9.80;;;6.10;;
35506;SDS011;36461;52.018;21.036;2023-10-13T14:08:10;10.20;;;6.50;;
35506;SDS011;36461;52.018;21.036;2023-10-13T14:10:43;11.00;;;6.70;;
35506;SDS011;36461;52.018;21.036;2023-10-13T14:13:30;11.90;;;6.70;;
35506;SDS011;36461;52.018;21.036;2023-10-13T14:16:18;10.20;;;6.30;;
35506;SDS011;36461;52.018;21.036;2023-10-13T14:18:49;9.80;;;5.40;;
35506;SDS011;36461;52.018;21.036;2023-10-13T14:21:18;8.90;;;5.90;;
35506;SDS011;36461;52.018;21.036;2023-10-13T14:23:47;10.10;;;6.00;;
35506;SDS011;36461;52.018;21.036;2023-10-13T14:26:16;11.60;;;6.40;;
35506;SDS011;36461;52.018;21.036;2023-10-13T14:28:49;13.40;;;7.70;;
35506;SDS011;36461;52.018;21.036;2023-10-13T14:31:36;11.30;;;7.20;;
35506;SDS011;36461;52.018;21.036;2023-10-13T14:34:05;15.40;;;7.00;;
35506;SDS011;36461;52.018;21.036;2023-10-13T14:36:36;10.70;;;7.00;;
35506;SDS011;36461;52.018;21.036;2023-10-13T14:39:05;10.60;;;7.20;;
35506;SDS011;36461;52.018;21.036;2023-10-13T14:41:37;8.80;;;6.00;;
35506;SDS011;36461;52.018;21.036;2023-10-13T14:44:06;10.30;;;6.30;;
35506;SDS011;36461;52.018;21.036;2023-10-13T14:46:35;9.80;;;6.60;;
35506;SDS011;36461;52.018;21.036;2023-10-13T14:49:12;11.00;;;6.90;;
35506;SDS011;36461;52.018;21.036;2023-10-13T14:51:42;13.00;;;7.60;;
35506;SDS011;36461;52.018;21.036;2023-10-13T14:54:10;12.10;;;7.40;;
35506;SDS011;36461;52.018;21.036;2023-10-13T14:56:38;10.10;;;6.50;;
35506;SDS011;36461;52.018;21.036;2023-10-13T14:59:09;12.90;;;7.80;;
35506;SDS011;36461;52.018;21.036;2023-10-13T15:01:45;11.50;;;7.40;;
35506;SDS011;36461;52.018;21.036;2023-10-13T15:04:14;10.30;;;7.00;;
35506;SDS011;36461;52.018;21.036;2023-10-13T15:06:43;10.30;;;6.50;;
35506;SDS011;36461;52.018;21.036;2023-10-13T15:09:12;10.60;;;6.80;;
35506;SDS011;36461;52.018;21.036;2023-10-13T15:11:40;11.70;;;7.90;;
35506;SDS011;36461;52.018;21.036;2023-10-13T15:14:17;8.80;;;6.80;;
35506;SDS011;36461;52.018;21.036;2023-10-13T15:16:48;10.30;;;7.30;;
35506;SDS011;36461;52.018;21.036;2023-10-13T15:19:17;8.90;;;6.80;;
35506;SDS011;36461;52.018;21.036;2023-10-13T15:21:45;11.40;;;8.30;;
35506;SDS011;36461;52.018;21.036;2023-10-13T15:24:20;10.70;;;8.40;;
35506;SDS011;36461;52.018;21.036;2023-10-13T15:26:54;12.70;;;8.30;;
35506;SDS011;36461;52.018;21.036;2023-10-13T15:29:31;14.40;;;8.60;;
35506;SDS011;36461;52.018;21.036;2023-10-13T15:32:05;15.00;;;9.50;;
35506;SDS011;36461;52.018;21.036;2023-10-13T15:34:54;11.50;;;8.20;;
35506;SDS011;36461;52.018;21.036;2023-10-13T15:37:24;12.70;;;8.20;;
35506;SDS011;36461;52.018;21.036;2023-10-13T15:39:54;10.20;;;7.90;;
35506;SDS011;36461;52.018;21.036;2023-10-13T15:42:23;11.90;;;7.60;;
35506;SDS011;36461;52.018;21.036;2023-10-13T15:44:51;12.80;;;8.00;;